Terminal Aerodrome Forecast
Issued by NWS St Louis, MO

Home | Current Version | Previous Version | Text Only | Print | Product List | Glossary On
Versions: 1 2 3 4 5 6 7 8 9 10 11 12 13 14 15 16
000
FTUS43 KLSX 201100 RRA
TAFCOU
TAF
KCOU 201145Z 2012/2112 08012KT 6SM -RA OVC035
     FM201400 07012KT 3SM -RA BR SCT007 OVC014
     FM201700 05012KT 3SM BR BKN006 OVC012
     FM210000 02006KT P6SM SCT007 OVC015=

USA.gov is the U.S. government's official web portal to all federal, state and local government web resources and services.